createdAt,value
2022-08-11T00:00:56.312Z,21.72
2022-08-11T00:03:57.659Z,21.68
2022-08-11T00:06:54.386Z,21.53
2022-08-11T00:09:51.903Z,21.51
2022-08-11T00:12:57.119Z,21.44
2022-08-11T00:15:54.253Z,21.25
2022-08-11T00:18:53.218Z,21.08
2022-08-11T00:22:04.707Z,21.42
2022-08-11T00:25:11.276Z,21.56
2022-08-11T00:28:29.857Z,21.51
2022-08-11T00:31:31.549Z,21.42
2022-08-11T00:34:31.026Z,21.15
2022-08-11T00:37:28.272Z,20.77
2022-08-11T00:40:43.108Z,20.74
2022-08-11T00:44:05.644Z,21.22
2022-08-11T00:47:24.457Z,21.48
2022-08-11T00:50:47.366Z,21.65
2022-08-11T00:54:02.742Z,21.55
2022-08-11T00:57:38.999Z,21.35
2022-08-11T01:01:10.339Z,21.26
2022-08-11T01:04:10.829Z,21.12
2022-08-11T01:08:01.637Z,20.74
2022-08-11T01:11:11.094Z,20.87
2022-08-11T01:14:34.662Z,21.02
2022-08-11T01:17:54.648Z,21.14
2022-08-11T01:21:16.204Z,21.17
2022-08-11T01:24:31.980Z,21.14
2022-08-11T01:27:35.157Z,21.14
2022-08-11T01:30:47.745Z,20.96
2022-08-11T01:34:03.002Z,20.75
2022-08-11T01:37:26.421Z,20.40
2022-08-11T01:40:41.338Z,20.42
2022-08-11T01:44:20.147Z,20.26
2022-08-11T01:47:53.068Z,20.24
2022-08-11T01:51:09.373Z,20.16
2022-08-11T01:54:43.878Z,20.05
2022-08-11T01:58:19.082Z,19.92
2022-08-11T02:01:32.814Z,20.07
2022-08-11T02:04:45.421Z,20.24
2022-08-11T02:08:22.337Z,20.04
2022-08-11T02:11:35.628Z,20.07
2022-08-11T02:15:08.300Z,19.96
2022-08-11T02:18:17.302Z,20.02
2022-08-11T02:21:35.532Z,20.15
2022-08-11T02:24:38.076Z,20.44
2022-08-11T02:27:45.911Z,20.36
2022-08-11T02:31:11.685Z,19.75
2022-08-11T02:34:37.295Z,19.40
2022-08-11T02:37:34.411Z,19.58
2022-08-11T02:40:53.889Z,19.50
2022-08-11T02:44:00.615Z,19.48
2022-08-11T02:47:06.882Z,20.07
2022-08-11T02:50:07.278Z,20.26
2022-08-11T02:53:16.985Z,20.21
2022-08-11T02:56:23.863Z,19.78
2022-08-11T02:59:42.030Z,19.21
2022-08-11T03:03:25.784Z,18.88
2022-08-11T03:06:31.614Z,18.93
2022-08-11T03:10:03.855Z,19.01
2022-08-11T03:13:40.311Z,19.24
2022-08-11T03:16:58.890Z,19.32
2022-08-11T03:20:09.054Z,19.39
2022-08-11T03:23:46.426Z,19.01
2022-08-11T03:26:53.921Z,18.62
2022-08-11T03:29:59.037Z,18.69
2022-08-11T03:33:34.092Z,18.72
2022-08-11T03:37:16.880Z,18.65
2022-08-11T03:40:57.652Z,18.92
2022-08-11T03:44:05.014Z,18.89
2022-08-11T03:47:34.391Z,18.62
2022-08-11T03:50:55.214Z,18.71
2022-08-11T03:54:05.919Z,18.89
2022-08-11T03:57:40.826Z,18.91
2022-08-11T04:01:22.656Z,18.86
2022-08-11T04:04:45.330Z,18.51
2022-08-11T04:08:15.779Z,18.34
2022-08-11T04:11:30.045Z,18.27
2022-08-11T04:15:21.588Z,18.33
2022-08-11T04:18:34.238Z,18.60
2022-08-11T04:21:56.302Z,18.98
2022-08-11T04:24:53.750Z,18.91
2022-08-11T04:28:06.441Z,18.60
2022-08-11T04:31:03.877Z,18.37
2022-08-11T04:34:32.223Z,18.21
2022-08-11T04:37:42.449Z,18.39
2022-08-11T04:41:08.987Z,18.72
2022-08-11T04:44:06.759Z,19.01
2022-08-11T04:48:04.073Z,19.02
2022-08-11T04:51:45.194Z,19.15
2022-08-11T04:55:15.206Z,19.39
2022-08-11T04:58:56.055Z,19.23
2022-08-11T05:02:16.904Z,18.96
2022-08-11T05:05:56.513Z,19.02
2022-08-11T05:09:12.449Z,19.20
2022-08-11T05:12:26.125Z,19.38
2022-08-11T05:16:00.782Z,19.63
2022-08-11T05:19:16.492Z,19.78
2022-08-11T05:22:33.442Z,19.94
2022-08-11T05:26:45.382Z,19.87
2022-08-11T05:30:00.176Z,19.90
2022-08-11T05:33:25.714Z,19.93
2022-08-11T05:36:50.591Z,20.09
2022-08-11T05:40:08.034Z,20.38
2022-08-11T05:43:30.860Z,20.42
2022-08-11T05:46:46.612Z,20.60
2022-08-11T05:50:08.223Z,20.73
2022-08-11T05:53:24.536Z,20.76
2022-08-11T05:56:21.505Z,20.65
2022-08-11T05:59:18.994Z,20.74
2022-08-11T06:02:15.980Z,20.86
2022-08-11T06:05:12.946Z,20.81
2022-08-11T06:08:10.285Z,20.87
2022-08-11T06:11:07.874Z,21.03
2022-08-11T06:14:04.859Z,21.17
2022-08-11T06:17:03.707Z,21.29
2022-08-11T06:20:07.634Z,21.39
2022-08-11T06:23:06.751Z,21.36
2022-08-11T06:26:08.976Z,21.27
2022-08-11T06:29:05.857Z,21.54
2022-08-11T06:32:03.370Z,21.69
2022-08-11T06:35:16.231Z,21.73
2022-08-11T06:38:52.003Z,21.74
2022-08-11T06:41:49.778Z,21.85
2022-08-11T06:44:58.348Z,21.95
2022-08-11T06:47:55.768Z,21.83
2022-08-11T06:51:12.649Z,21.82
2022-08-11T06:54:11.798Z,21.68
2022-08-11T06:57:36.949Z,21.83
2022-08-11T07:00:33.681Z,21.89
2022-08-11T07:03:30.482Z,21.91
2022-08-11T07:07:13.821Z,22.03
2022-08-11T07:10:39.267Z,22.26
2022-08-11T07:13:56.903Z,22.73
2022-08-11T07:16:53.822Z,22.94
2022-08-11T07:20:12.229Z,23.18
2022-08-11T07:23:28.720Z,23.03
2022-08-11T07:26:45.022Z,23.01
2022-08-11T07:29:43.666Z,23.24
2022-08-11T07:33:00.504Z,23.60
2022-08-11T07:35:58.155Z,23.72
2022-08-11T07:38:56.291Z,23.88
2022-08-11T07:41:57.135Z,23.94
2022-08-11T07:45:14.066Z,24.17
2022-08-11T07:48:29.441Z,24.16
2022-08-11T07:51:45.257Z,24.18
2022-08-11T07:54:43.878Z,24.54
2022-08-11T07:58:16.813Z,24.72
2022-08-11T08:01:43.531Z,24.81
2022-08-11T08:04:59.431Z,24.77
2022-08-11T08:08:15.466Z,24.81
2022-08-11T08:11:33.337Z,25.14
2022-08-11T08:14:49.877Z,25.18
2022-08-11T08:18:20.879Z,25.18
2022-08-11T08:21:13.116Z,25.46
2022-08-11T08:24:09.591Z,25.56
2022-08-11T08:27:07.119Z,25.63
2022-08-11T08:30:23.439Z,25.91
2022-08-11T08:33:21.498Z,25.90
2022-08-11T08:36:20.507Z,25.78
2022-08-11T08:39:21.826Z,26.10
2022-08-11T08:42:27.031Z,26.41
2022-08-11T08:45:24.746Z,26.35
2022-08-11T08:48:21.669Z,26.34
2022-08-11T08:52:01.180Z,26.32
2022-08-11T08:54:56.406Z,26.47
2022-08-11T08:57:54.797Z,26.59
2022-08-11T09:00:53.246Z,26.56
2022-08-11T09:04:04.905Z,26.70
2022-08-11T09:07:13.442Z,26.92
2022-08-11T09:10:11.565Z,27.16
2022-08-11T09:13:09.434Z,27.25
2022-08-11T09:16:09.537Z,27.23
2022-08-11T09:19:07.437Z,27.19
2022-08-11T09:22:23.566Z,27.42
2022-08-11T09:25:40.467Z,27.63
2022-08-11T09:28:37.795Z,27.66
2022-08-11T09:31:39.642Z,27.80
2022-08-11T09:34:37.224Z,27.95
2022-08-11T09:37:55.803Z,28.19
2022-08-11T09:40:57.093Z,28.30
2022-08-11T09:44:13.381Z,28.36
2022-08-11T09:47:15.539Z,28.47
2022-08-11T09:50:14.845Z,28.50
2022-08-11T09:53:37.413Z,28.58
2022-08-11T09:56:49.503Z,28.53
2022-08-11T09:59:47.774Z,28.55
2022-08-11T10:02:46.392Z,28.68
2022-08-11T10:06:08.004Z,28.75
2022-08-11T10:09:06.259Z,28.86
2022-08-11T10:12:03.264Z,28.99
2022-08-11T10:15:23.041Z,29.19
2022-08-11T10:18:42.301Z,29.09
2022-08-11T10:21:45.167Z,29.09
2022-08-11T10:25:00.563Z,29.10
2022-08-11T10:28:28.946Z,29.05
2022-08-11T10:31:43.827Z,29.16
2022-08-11T10:34:54.491Z,29.19
2022-08-11T10:38:06.201Z,29.35
2022-08-11T10:41:27.870Z,29.60
2022-08-11T10:44:25.163Z,29.61
2022-08-11T10:47:39.321Z,29.74
2022-08-11T10:51:05.658Z,29.74
2022-08-11T10:54:21.504Z,29.76
2022-08-11T10:57:37.562Z,29.80
2022-08-11T11:00:36.211Z,29.85
2022-08-11T11:03:35.915Z,30.12
2022-08-11T11:06:44.926Z,30.14
2022-08-11T11:09:48.398Z,30.03
2022-08-11T11:13:05.912Z,30.18
2022-08-11T11:16:21.395Z,30.19
2022-08-11T11:19:20.838Z,30.27
2022-08-11T11:22:36.826Z,30.01
2022-08-11T11:25:40.288Z,30.05
2022-08-11T11:29:03.675Z,30.08
2022-08-11T11:32:10.237Z,29.98
2022-08-11T11:35:15.801Z,29.82
2022-08-11T11:38:14.270Z,30.03
2022-08-11T11:41:26.235Z,30.20
2022-08-11T11:44:23.197Z,30.42
2022-08-11T11:47:21.799Z,30.59
2022-08-11T11:50:32.773Z,30.71
2022-08-11T11:53:30.113Z,30.84
2022-08-11T11:56:26.846Z,30.85
2022-08-11T11:59:44.477Z,30.75
2022-08-11T12:02:43.056Z,30.91
2022-08-11T12:05:40.818Z,30.98
2022-08-11T12:08:37.918Z,30.88
2022-08-11T12:11:53.768Z,30.75
2022-08-11T12:14:51.001Z,30.87
2022-08-11T12:17:52.388Z,30.94
2022-08-11T12:20:49.932Z,31.14
2022-08-11T12:24:05.882Z,30.97
2022-08-11T12:27:28.583Z,30.96
2022-08-11T12:30:26.149Z,30.89
2022-08-11T12:33:23.945Z,30.94
2022-08-11T12:36:20.900Z,31.05
2022-08-11T12:40:16.973Z,31.19
2022-08-11T12:43:37.268Z,31.20
2022-08-11T12:46:37.883Z,31.16
2022-08-11T12:49:59.046Z,31.32
2022-08-11T12:52:57.085Z,31.13
2022-08-11T12:56:14.076Z,30.87
2022-08-11T12:59:29.733Z,30.81
2022-08-11T13:02:45.517Z,30.96
2022-08-11T13:05:45.191Z,30.95
2022-08-11T13:08:42.135Z,30.95
2022-08-11T13:11:58.987Z,30.91
2022-08-11T13:14:56.286Z,30.87
2022-08-11T13:17:54.186Z,31.06
2022-08-11T13:20:54.745Z,31.29
2022-08-11T13:24:00.715Z,31.09
2022-08-11T13:26:59.843Z,31.21
2022-08-11T13:30:21.188Z,31.16
2022-08-11T13:33:19.422Z,31.12
2022-08-11T13:36:20.916Z,31.17
2022-08-11T13:39:18.460Z,31.01
2022-08-11T13:42:16.369Z,31.16
2022-08-11T13:45:14.117Z,31.31
2022-08-11T13:48:11.215Z,31.29
2022-08-11T13:51:34.200Z,31.61
2022-08-11T13:54:32.792Z,31.50
2022-08-11T13:58:08.502Z,31.41
2022-08-11T14:00:52.660Z,31.50
2022-08-11T14:04:29.663Z,31.56
2022-08-11T14:07:08.749Z,31.52
2022-08-11T14:10:07.074Z,31.48
2022-08-11T14:13:26.492Z,31.42
2022-08-11T14:16:28.878Z,31.46
2022-08-11T14:19:26.388Z,31.54
2022-08-11T14:22:23.329Z,31.61
2022-08-11T14:25:20.587Z,31.60
2022-08-11T14:28:33.569Z,31.57
2022-08-11T14:31:34.429Z,31.56
2022-08-11T14:34:32.047Z,31.70
2022-08-11T14:37:29.166Z,31.92
2022-08-11T14:40:44.594Z,32.11
2022-08-11T14:44:13.246Z,32.26
2022-08-11T14:47:24.022Z,32.36
2022-08-11T14:50:24.200Z,32.41
2022-08-11T14:53:21.873Z,32.55
2022-08-11T14:56:37.298Z,32.64
2022-08-11T14:59:34.452Z,32.58
2022-08-11T15:02:49.923Z,32.40
2022-08-11T15:05:58.623Z,32.22
2022-08-11T15:08:56.572Z,32.57
2022-08-11T15:12:32.715Z,32.45
2022-08-11T15:15:44.407Z,32.73
2022-08-11T15:18:41.170Z,32.85
2022-08-11T15:21:56.799Z,32.52
2022-08-11T15:24:54.546Z,32.24
2022-08-11T15:28:10.104Z,32.15
2022-08-11T15:31:42.410Z,31.99
2022-08-11T15:35:08.330Z,31.98
2022-08-11T15:38:04.950Z,31.95
2022-08-11T15:41:21.305Z,31.58
2022-08-11T15:45:01.009Z,31.16
2022-08-11T15:48:05.804Z,31.27
2022-08-11T15:51:11.818Z,30.92
2022-08-11T15:54:15.819Z,31.08
2022-08-11T15:57:38.219Z,30.92
2022-08-11T16:00:58.979Z,30.95
2022-08-11T16:04:12.963Z,31.10
2022-08-11T16:07:11.788Z,31.12
2022-08-11T16:10:19.075Z,31.06
2022-08-11T16:13:16.205Z,31.06
2022-08-11T16:16:17.149Z,31.34
2022-08-11T16:19:14.795Z,31.37
2022-08-11T16:22:12.812Z,31.48
2022-08-11T16:27:03.822Z,31.61
2022-08-11T16:28:29.964Z,31.55
2022-08-11T16:31:28.205Z,31.47
2022-08-11T16:34:44.282Z,31.37
2022-08-11T16:37:59.876Z,31.43
2022-08-11T16:40:58.124Z,31.50
2022-08-11T16:44:13.857Z,31.50
2022-08-11T16:47:16.198Z,31.44
2022-08-11T16:50:13.419Z,31.46
2022-08-11T16:53:10.119Z,31.45
2022-08-11T16:56:07.858Z,31.50
2022-08-11T16:59:32.200Z,31.46
2022-08-11T17:02:50.957Z,31.59
2022-08-11T17:06:11.402Z,31.54
2022-08-11T17:09:27.050Z,31.44
2022-08-11T17:12:44.580Z,31.46
2022-08-11T17:16:04.903Z,31.34
2022-08-11T17:19:03.632Z,31.20
2022-08-11T17:22:19.036Z,31.13
2022-08-11T17:25:16.221Z,31.15
2022-08-11T17:28:13.404Z,31.09
2022-08-11T17:31:29.087Z,31.11
2022-08-11T17:34:44.582Z,30.82
2022-08-11T17:37:41.540Z,30.89
2022-08-11T17:40:40.027Z,30.86
2022-08-11T17:43:56.524Z,30.52
2022-08-11T17:47:11.710Z,30.37
2022-08-11T17:50:16.224Z,30.29
2022-08-11T17:53:32.868Z,30.38
2022-08-11T17:56:50.065Z,30.35
2022-08-11T17:59:53.678Z,30.11
2022-08-11T18:03:09.837Z,30.10
2022-08-11T18:06:12.574Z,29.97
2022-08-11T18:09:36.543Z,29.74
2022-08-11T18:12:51.825Z,29.72
2022-08-11T18:16:08.035Z,29.65
2022-08-11T18:19:24.765Z,29.68
2022-08-11T18:22:44.661Z,29.66
2022-08-11T18:26:02.853Z,29.56
2022-08-11T18:29:22.134Z,29.28
2022-08-11T18:32:49.645Z,29.10
2022-08-11T18:36:11.722Z,28.89
2022-08-11T18:39:29.710Z,28.67
2022-08-11T18:42:46.016Z,28.77
2022-08-11T18:46:06.916Z,28.68
2022-08-11T18:50:02.306Z,28.71
2022-08-11T18:53:12.972Z,28.55
2022-08-11T18:56:29.232Z,28.43
2022-08-11T18:59:45.238Z,28.31
2022-08-11T19:03:00.897Z,28.14
2022-08-11T19:06:38.395Z,28.05
2022-08-11T19:09:54.286Z,27.68
2022-08-11T19:13:09.955Z,27.60
2022-08-11T19:16:26.203Z,27.43
2022-08-11T19:19:46.833Z,27.31
2022-08-11T19:23:03.741Z,27.27
2022-08-11T19:26:19.534Z,27.37
2022-08-11T19:30:07.758Z,27.07
2022-08-11T19:33:11.239Z,27.04
2022-08-11T19:36:26.983Z,26.88
2022-08-11T19:39:42.856Z,26.85
2022-08-11T19:43:00.280Z,26.80
2022-08-11T19:46:17.344Z,26.76
2022-08-11T19:49:32.869Z,26.70
2022-08-11T19:52:48.740Z,26.60
2022-08-11T19:56:06.172Z,26.60
2022-08-11T19:59:21.700Z,26.49
2022-08-11T20:02:37.066Z,26.40
2022-08-11T20:05:59.439Z,26.43
2022-08-11T20:09:18.611Z,26.37
2022-08-11T20:12:33.883Z,26.15
2022-08-11T20:15:50.264Z,26.06
2022-08-11T20:19:05.958Z,26.03
2022-08-11T20:22:22.303Z,26.08
2022-08-11T20:25:37.708Z,26.02
2022-08-11T20:28:53.626Z,25.73
2022-08-11T20:32:09.804Z,25.79
2022-08-11T20:35:26.508Z,25.65
2022-08-11T20:38:42.787Z,25.49
2022-08-11T20:41:59.605Z,25.51
2022-08-11T20:45:15.301Z,25.50
2022-08-11T20:48:31.914Z,25.52
2022-08-11T20:51:48.126Z,25.27
2022-08-11T20:55:18.877Z,25.20
2022-08-11T20:59:11.136Z,25.15
2022-08-11T21:02:13.268Z,25.09
2022-08-11T21:09:05.224Z,24.79
2022-08-11T21:12:22.384Z,24.74
2022-08-11T21:16:01.217Z,24.57
2022-08-11T21:19:59.533Z,24.50
2022-08-11T21:23:16.108Z,24.61
2022-08-11T21:26:40.287Z,24.44
2022-08-11T21:29:56.097Z,24.51
2022-08-11T21:33:12.438Z,24.53
2022-08-11T21:36:28.261Z,24.61
2022-08-11T21:39:43.937Z,24.48
2022-08-11T21:43:02.466Z,24.40
2022-08-11T21:46:18.707Z,24.57
2022-08-11T21:49:33.949Z,24.41
2022-08-11T21:52:49.070Z,24.57
2022-08-11T21:56:05.406Z,24.46
2022-08-11T21:59:21.115Z,24.45
2022-08-11T22:02:37.054Z,24.46
2022-08-11T22:05:53.544Z,24.44
2022-08-11T22:09:09.460Z,24.21
2022-08-11T22:12:29.941Z,24.12
2022-08-11T22:15:50.302Z,24.07
2022-08-11T22:19:06.504Z,24.06
2022-08-11T22:22:26.347Z,24.03
2022-08-11T22:25:46.488Z,24.06
2022-08-11T22:29:07.839Z,24.03
2022-08-11T22:32:24.047Z,24.13
2022-08-11T22:35:40.749Z,23.99
2022-08-11T22:38:57.376Z,24.04
2022-08-11T22:42:13.412Z,23.98
2022-08-11T22:45:29.033Z,23.77
2022-08-11T22:48:47.361Z,23.58
2022-08-11T22:52:03.151Z,23.61
2022-08-11T22:55:19.202Z,23.63
2022-08-11T22:58:35.173Z,23.62
2022-08-11T23:01:56.176Z,23.64
2022-08-11T23:05:13.096Z,23.60
2022-08-11T23:08:29.317Z,23.40
2022-08-11T23:12:07.824Z,23.54
2022-08-11T23:15:19.981Z,23.75
2022-08-11T23:18:37.773Z,23.55
2022-08-11T23:21:54.373Z,23.48
2022-08-11T23:25:17.739Z,23.44
2022-08-11T23:28:33.470Z,23.29
2022-08-11T23:31:50.654Z,23.15
2022-08-11T23:35:38.564Z,23.27
2022-08-11T23:38:45.554Z,23.36
2022-08-11T23:42:02.766Z,23.42
2022-08-11T23:45:22.608Z,23.19
2022-08-11T23:48:38.018Z,23.15
2022-08-11T23:51:53.123Z,23.08
2022-08-11T23:55:09.272Z,22.93
2022-08-11T23:58:26.017Z,22.72
